sensor_id;sensor_type;location;lat;lon;timestamp;P1;durP1;ratioP1;P2;durP2;ratioP2
80307;SDS011;69616;43.522;1.348;2023-11-19T00:01:25;37.43;;;17.80;;
80307;SDS011;69616;43.522;1.348;2023-11-19T00:03:50;39.60;;;18.77;;
80307;SDS011;69616;43.522;1.348;2023-11-19T00:06:15;36.03;;;18.40;;
80307;SDS011;69616;43.522;1.348;2023-11-19T00:08:41;34.97;;;17.10;;
80307;SDS011;69616;43.522;1.348;2023-11-19T00:11:08;36.80;;;18.08;;
80307;SDS011;69616;43.522;1.348;2023-11-19T00:13:34;33.57;;;17.30;;
80307;SDS011;69616;43.522;1.348;2023-11-19T00:15:59;33.23;;;18.40;;
80307;SDS011;69616;43.522;1.348;2023-11-19T00:18:25;32.70;;;17.13;;
80307;SDS011;69616;43.522;1.348;2023-11-19T00:20:50;32.63;;;17.53;;
80307;SDS011;69616;43.522;1.348;2023-11-19T00:23:15;33.67;;;17.43;;
80307;SDS011;69616;43.522;1.348;2023-11-19T00:25:41;29.73;;;16.90;;
80307;SDS011;69616;43.522;1.348;2023-11-19T00:28:06;34.05;;;18.02;;
80307;SDS011;69616;43.522;1.348;2023-11-19T00:30:32;30.90;;;16.10;;
80307;SDS011;69616;43.522;1.348;2023-11-19T00:32:57;37.10;;;16.67;;
80307;SDS011;69616;43.522;1.348;2023-11-19T00:35:23;34.60;;;16.42;;
80307;SDS011;69616;43.522;1.348;2023-11-19T00:37:48;31.00;;;16.37;;
80307;SDS011;69616;43.522;1.348;2023-11-19T00:40:14;33.03;;;17.27;;
80307;SDS011;69616;43.522;1.348;2023-11-19T00:42:41;32.55;;;17.80;;
80307;SDS011;69616;43.522;1.348;2023-11-19T00:45:06;32.55;;;18.02;;
80307;SDS011;69616;43.522;1.348;2023-11-19T00:47:38;27.63;;;16.03;;
80307;SDS011;69616;43.522;1.348;2023-11-19T00:50:03;31.77;;;16.92;;
80307;SDS011;69616;43.522;1.348;2023-11-19T00:52:29;33.78;;;17.02;;
80307;SDS011;69616;43.522;1.348;2023-11-19T00:54:54;33.27;;;15.90;;
80307;SDS011;69616;43.522;1.348;2023-11-19T00:57:20;33.50;;;16.53;;
80307;SDS011;69616;43.522;1.348;2023-11-19T00:59:45;30.00;;;15.13;;
80307;SDS011;69616;43.522;1.348;2023-11-19T01:02:12;29.63;;;13.88;;
80307;SDS011;69616;43.522;1.348;2023-11-19T01:04:39;26.15;;;13.98;;
80307;SDS011;69616;43.522;1.348;2023-11-19T01:07:05;26.23;;;13.73;;
80307;SDS011;69616;43.522;1.348;2023-11-19T01:09:31;26.50;;;13.25;;
80307;SDS011;69616;43.522;1.348;2023-11-19T01:11:58;25.48;;;12.20;;
80307;SDS011;69616;43.522;1.348;2023-11-19T01:14:25;23.38;;;10.07;;
80307;SDS011;69616;43.522;1.348;2023-11-19T01:16:51;18.67;;;9.40;;
80307;SDS011;69616;43.522;1.348;2023-11-19T01:19:16;20.47;;;9.00;;
80307;SDS011;69616;43.522;1.348;2023-11-19T01:21:41;18.33;;;8.70;;
80307;SDS011;69616;43.522;1.348;2023-11-19T01:24:08;17.05;;;8.48;;
80307;SDS011;69616;43.522;1.348;2023-11-19T01:26:34;16.25;;;7.90;;
80307;SDS011;69616;43.522;1.348;2023-11-19T01:29:00;18.87;;;8.33;;
80307;SDS011;69616;43.522;1.348;2023-11-19T01:31:26;15.95;;;8.18;;
80307;SDS011;69616;43.522;1.348;2023-11-19T01:33:51;17.80;;;8.23;;
80307;SDS011;69616;43.522;1.348;2023-11-19T01:36:17;17.17;;;8.63;;
80307;SDS011;69616;43.522;1.348;2023-11-19T01:38:42;19.80;;;9.32;;
80307;SDS011;69616;43.522;1.348;2023-11-19T01:41:07;19.97;;;9.17;;
80307;SDS011;69616;43.522;1.348;2023-11-19T01:46:00;17.43;;;9.27;;
80307;SDS011;69616;43.522;1.348;2023-11-19T01:48:27;16.35;;;8.90;;
80307;SDS011;69616;43.522;1.348;2023-11-19T01:50:53;16.58;;;9.10;;
80307;SDS011;69616;43.522;1.348;2023-11-19T01:53:18;18.57;;;9.83;;
80307;SDS011;69616;43.522;1.348;2023-11-19T01:55:46;20.70;;;10.38;;
80307;SDS011;69616;43.522;1.348;2023-11-19T01:58:12;21.83;;;12.27;;
80307;SDS011;69616;43.522;1.348;2023-11-19T02:00:38;26.97;;;13.73;;
80307;SDS011;69616;43.522;1.348;2023-11-19T02:03:03;22.23;;;11.15;;
80307;SDS011;69616;43.522;1.348;2023-11-19T02:05:32;22.37;;;10.50;;
80307;SDS011;69616;43.522;1.348;2023-11-19T02:07:58;20.98;;;10.13;;
80307;SDS011;69616;43.522;1.348;2023-11-19T02:10:23;19.45;;;9.90;;
80307;SDS011;69616;43.522;1.348;2023-11-19T02:12:50;16.40;;;9.80;;
80307;SDS011;69616;43.522;1.348;2023-11-19T02:15:16;21.10;;;10.88;;
80307;SDS011;69616;43.522;1.348;2023-11-19T02:17:44;19.35;;;9.55;;
80307;SDS011;69616;43.522;1.348;2023-11-19T02:20:09;22.43;;;11.23;;
80307;SDS011;69616;43.522;1.348;2023-11-19T02:22:37;23.83;;;11.82;;
80307;SDS011;69616;43.522;1.348;2023-11-19T02:25:04;24.10;;;11.68;;
80307;SDS011;69616;43.522;1.348;2023-11-19T02:30:15;22.60;;;11.40;;
80307;SDS011;69616;43.522;1.348;2023-11-19T02:32:43;24.42;;;11.82;;
80307;SDS011;69616;43.522;1.348;2023-11-19T02:35:08;21.20;;;11.63;;
80307;SDS011;69616;43.522;1.348;2023-11-19T02:37:34;28.08;;;13.40;;
80307;SDS011;69616;43.522;1.348;2023-11-19T02:40:00;34.70;;;16.03;;
80307;SDS011;69616;43.522;1.348;2023-11-19T02:42:29;32.03;;;14.65;;
80307;SDS011;69616;43.522;1.348;2023-11-19T02:44:54;32.00;;;15.00;;
80307;SDS011;69616;43.522;1.348;2023-11-19T02:47:20;26.33;;;14.15;;
80307;SDS011;69616;43.522;1.348;2023-11-19T02:49:46;23.80;;;12.37;;
80307;SDS011;69616;43.522;1.348;2023-11-19T02:52:12;20.45;;;10.98;;
80307;SDS011;69616;43.522;1.348;2023-11-19T02:54:39;23.70;;;10.60;;
80307;SDS011;69616;43.522;1.348;2023-11-19T02:57:06;21.77;;;10.40;;
80307;SDS011;69616;43.522;1.348;2023-11-19T02:59:33;20.65;;;9.75;;
80307;SDS011;69616;43.522;1.348;2023-11-19T03:02:04;16.57;;;8.87;;
80307;SDS011;69616;43.522;1.348;2023-11-19T03:04:32;16.98;;;8.38;;
80307;SDS011;69616;43.522;1.348;2023-11-19T03:06:58;19.00;;;9.10;;
80307;SDS011;69616;43.522;1.348;2023-11-19T03:09:23;17.37;;;8.87;;
80307;SDS011;69616;43.522;1.348;2023-11-19T03:11:49;20.65;;;9.32;;
80307;SDS011;69616;43.522;1.348;2023-11-19T03:14:14;19.70;;;8.30;;
80307;SDS011;69616;43.522;1.348;2023-11-19T03:16:40;21.77;;;9.20;;
80307;SDS011;69616;43.522;1.348;2023-11-19T03:19:05;23.63;;;9.77;;
80307;SDS011;69616;43.522;1.348;2023-11-19T03:21:31;16.23;;;7.90;;
80307;SDS011;69616;43.522;1.348;2023-11-19T03:23:57;19.23;;;8.32;;
80307;SDS011;69616;43.522;1.348;2023-11-19T03:26:25;16.73;;;8.77;;
80307;SDS011;69616;43.522;1.348;2023-11-19T03:28:51;17.98;;;8.43;;
80307;SDS011;69616;43.522;1.348;2023-11-19T03:31:17;17.20;;;8.10;;
80307;SDS011;69616;43.522;1.348;2023-11-19T03:33:42;16.77;;;8.20;;
80307;SDS011;69616;43.522;1.348;2023-11-19T03:36:07;16.17;;;7.93;;
80307;SDS011;69616;43.522;1.348;2023-11-19T03:38:34;16.17;;;8.10;;
80307;SDS011;69616;43.522;1.348;2023-11-19T03:40:59;15.33;;;7.80;;
80307;SDS011;69616;43.522;1.348;2023-11-19T03:43:25;14.10;;;7.77;;
80307;SDS011;69616;43.522;1.348;2023-11-19T03:45:50;16.30;;;7.70;;
80307;SDS011;69616;43.522;1.348;2023-11-19T03:48:15;17.77;;;7.90;;
80307;SDS011;69616;43.522;1.348;2023-11-19T03:50:41;15.43;;;6.73;;
80307;SDS011;69616;43.522;1.348;2023-11-19T03:53:07;14.40;;;6.55;;
80307;SDS011;69616;43.522;1.348;2023-11-19T03:55:32;15.40;;;6.43;;
80307;SDS011;69616;43.522;1.348;2023-11-19T03:57:58;16.27;;;7.50;;
80307;SDS011;69616;43.522;1.348;2023-11-19T04:00:23;16.63;;;7.35;;
80307;SDS011;69616;43.522;1.348;2023-11-19T04:02:48;15.60;;;7.33;;
80307;SDS011;69616;43.522;1.348;2023-11-19T04:05:14;20.50;;;7.73;;
80307;SDS011;69616;43.522;1.348;2023-11-19T04:07:39;13.47;;;6.30;;
80307;SDS011;69616;43.522;1.348;2023-11-19T04:10:05;14.90;;;6.57;;
80307;SDS011;69616;43.522;1.348;2023-11-19T04:12:30;18.85;;;7.50;;
80307;SDS011;69616;43.522;1.348;2023-11-19T04:14:56;15.60;;;6.53;;
80307;SDS011;69616;43.522;1.348;2023-11-19T04:17:21;14.70;;;7.30;;
80307;SDS011;69616;43.522;1.348;2023-11-19T04:19:48;15.48;;;6.65;;
80307;SDS011;69616;43.522;1.348;2023-11-19T04:22:13;17.73;;;6.67;;
80307;SDS011;69616;43.522;1.348;2023-11-19T04:24:39;12.68;;;6.03;;
80307;SDS011;69616;43.522;1.348;2023-11-19T04:27:05;14.52;;;6.65;;
80307;SDS011;69616;43.522;1.348;2023-11-19T04:29:31;13.77;;;6.63;;
80307;SDS011;69616;43.522;1.348;2023-11-19T04:31:57;13.52;;;6.78;;
80307;SDS011;69616;43.522;1.348;2023-11-19T04:34:22;13.03;;;6.27;;
80307;SDS011;69616;43.522;1.348;2023-11-19T04:36:48;16.03;;;5.90;;
80307;SDS011;69616;43.522;1.348;2023-11-19T04:39:14;12.35;;;5.65;;
80307;SDS011;69616;43.522;1.348;2023-11-19T04:41:49;13.88;;;6.22;;
80307;SDS011;69616;43.522;1.348;2023-11-19T04:44:17;14.07;;;5.82;;
80307;SDS011;69616;43.522;1.348;2023-11-19T04:46:43;13.63;;;6.00;;
80307;SDS011;69616;43.522;1.348;2023-11-19T04:49:09;14.65;;;6.45;;
80307;SDS011;69616;43.522;1.348;2023-11-19T04:51:42;13.90;;;5.90;;
80307;SDS011;69616;43.522;1.348;2023-11-19T04:54:09;12.32;;;5.65;;
80307;SDS011;69616;43.522;1.348;2023-11-19T04:56:35;15.73;;;6.70;;
80307;SDS011;69616;43.522;1.348;2023-11-19T04:59:02;14.00;;;6.13;;
80307;SDS011;69616;43.522;1.348;2023-11-19T05:01:28;16.10;;;6.10;;
80307;SDS011;69616;43.522;1.348;2023-11-19T05:03:53;13.23;;;6.17;;
80307;SDS011;69616;43.522;1.348;2023-11-19T05:06:19;14.20;;;6.37;;
80307;SDS011;69616;43.522;1.348;2023-11-19T05:08:44;13.90;;;5.70;;
80307;SDS011;69616;43.522;1.348;2023-11-19T05:11:10;12.60;;;5.78;;
80307;SDS011;69616;43.522;1.348;2023-11-19T05:13:38;12.40;;;5.32;;
80307;SDS011;69616;43.522;1.348;2023-11-19T05:16:04;12.07;;;5.60;;
80307;SDS011;69616;43.522;1.348;2023-11-19T05:18:30;12.15;;;5.10;;
80307;SDS011;69616;43.522;1.348;2023-11-19T05:20:55;12.90;;;5.13;;
80307;SDS011;69616;43.522;1.348;2023-11-19T05:23:20;14.47;;;5.83;;
80307;SDS011;69616;43.522;1.348;2023-11-19T05:25:46;11.65;;;5.35;;
80307;SDS011;69616;43.522;1.348;2023-11-19T05:28:12;12.02;;;5.57;;
80307;SDS011;69616;43.522;1.348;2023-11-19T05:30:39;12.13;;;5.15;;
80307;SDS011;69616;43.522;1.348;2023-11-19T05:33:05;10.30;;;4.97;;
80307;SDS011;69616;43.522;1.348;2023-11-19T05:35:34;11.40;;;4.75;;
80307;SDS011;69616;43.522;1.348;2023-11-19T05:38:00;9.90;;;4.68;;
80307;SDS011;69616;43.522;1.348;2023-11-19T05:40:27;11.68;;;5.20;;
80307;SDS011;69616;43.522;1.348;2023-11-19T05:42:53;11.20;;;4.80;;
80307;SDS011;69616;43.522;1.348;2023-11-19T05:45:18;10.93;;;5.00;;
80307;SDS011;69616;43.522;1.348;2023-11-19T05:47:43;9.10;;;4.43;;
80307;SDS011;69616;43.522;1.348;2023-11-19T05:50:09;11.63;;;5.07;;
80307;SDS011;69616;43.522;1.348;2023-11-19T05:52:35;12.93;;;5.20;;
80307;SDS011;69616;43.522;1.348;2023-11-19T05:55:00;13.88;;;4.97;;
80307;SDS011;69616;43.522;1.348;2023-11-19T05:57:29;12.87;;;5.60;;
80307;SDS011;69616;43.522;1.348;2023-11-19T05:59:55;9.07;;;4.43;;
80307;SDS011;69616;43.522;1.348;2023-11-19T06:02:20;11.20;;;5.00;;
80307;SDS011;69616;43.522;1.348;2023-11-19T06:04:46;12.50;;;5.47;;
80307;SDS011;69616;43.522;1.348;2023-11-19T06:07:13;11.60;;;5.43;;
80307;SDS011;69616;43.522;1.348;2023-11-19T06:09:40;14.10;;;4.93;;
80307;SDS011;69616;43.522;1.348;2023-11-19T06:12:05;10.52;;;5.00;;
80307;SDS011;69616;43.522;1.348;2023-11-19T06:14:32;12.80;;;5.10;;
80307;SDS011;69616;43.522;1.348;2023-11-19T06:16:57;10.25;;;4.80;;
80307;SDS011;69616;43.522;1.348;2023-11-19T06:19:23;11.77;;;5.30;;
80307;SDS011;69616;43.522;1.348;2023-11-19T06:21:50;10.05;;;4.72;;
80307;SDS011;69616;43.522;1.348;2023-11-19T06:24:15;12.17;;;4.73;;
80307;SDS011;69616;43.522;1.348;2023-11-19T06:26:40;9.77;;;4.50;;
80307;SDS011;69616;43.522;1.348;2023-11-19T06:29:06;10.83;;;4.77;;
80307;SDS011;69616;43.522;1.348;2023-11-19T06:31:31;9.65;;;4.60;;
80307;SDS011;69616;43.522;1.348;2023-11-19T06:33:57;10.93;;;4.60;;
80307;SDS011;69616;43.522;1.348;2023-11-19T06:36:22;8.60;;;4.57;;
80307;SDS011;69616;43.522;1.348;2023-11-19T06:38:47;10.83;;;4.67;;
80307;SDS011;69616;43.522;1.348;2023-11-19T06:41:13;9.17;;;4.40;;
80307;SDS011;69616;43.522;1.348;2023-11-19T06:43:38;12.23;;;4.88;;
80307;SDS011;69616;43.522;1.348;2023-11-19T06:46:04;11.20;;;4.20;;
80307;SDS011;69616;43.522;1.348;2023-11-19T06:48:34;10.38;;;4.53;;
80307;SDS011;69616;43.522;1.348;2023-11-19T06:50:59;11.25;;;4.55;;
80307;SDS011;69616;43.522;1.348;2023-11-19T06:53:25;9.17;;;4.40;;
80307;SDS011;69616;43.522;1.348;2023-11-19T06:55:53;10.88;;;4.80;;
80307;SDS011;69616;43.522;1.348;2023-11-19T06:58:18;10.05;;;4.82;;
80307;SDS011;69616;43.522;1.348;2023-11-19T07:00:44;10.03;;;4.10;;
80307;SDS011;69616;43.522;1.348;2023-11-19T07:03:10;10.27;;;4.53;;
80307;SDS011;69616;43.522;1.348;2023-11-19T07:05:36;9.13;;;4.43;;
80307;SDS011;69616;43.522;1.348;2023-11-19T07:08:05;8.80;;;4.15;;
80307;SDS011;69616;43.522;1.348;2023-11-19T07:10:32;10.95;;;4.60;;
80307;SDS011;69616;43.522;1.348;2023-11-19T07:12:58;11.70;;;5.00;;
80307;SDS011;69616;43.522;1.348;2023-11-19T07:15:24;12.65;;;4.95;;
80307;SDS011;69616;43.522;1.348;2023-11-19T07:17:49;14.03;;;4.50;;
80307;SDS011;69616;43.522;1.348;2023-11-19T07:20:15;13.23;;;4.73;;
80307;SDS011;69616;43.522;1.348;2023-11-19T07:22:43;9.80;;;4.40;;
80307;SDS011;69616;43.522;1.348;2023-11-19T07:25:11;12.05;;;4.32;;
80307;SDS011;69616;43.522;1.348;2023-11-19T07:27:38;10.60;;;4.33;;
80307;SDS011;69616;43.522;1.348;2023-11-19T07:30:04;12.27;;;4.97;;
80307;SDS011;69616;43.522;1.348;2023-11-19T07:32:32;11.40;;;4.67;;
80307;SDS011;69616;43.522;1.348;2023-11-19T07:34:58;9.43;;;4.43;;
80307;SDS011;69616;43.522;1.348;2023-11-19T07:37:23;10.77;;;4.67;;
80307;SDS011;69616;43.522;1.348;2023-11-19T07:39:49;12.98;;;4.90;;
80307;SDS011;69616;43.522;1.348;2023-11-19T07:42:14;11.27;;;4.50;;
80307;SDS011;69616;43.522;1.348;2023-11-19T07:44:40;12.73;;;5.10;;
80307;SDS011;69616;43.522;1.348;2023-11-19T07:47:06;11.55;;;5.32;;
80307;SDS011;69616;43.522;1.348;2023-11-19T07:49:32;12.77;;;5.00;;
80307;SDS011;69616;43.522;1.348;2023-11-19T07:51:57;12.15;;;4.85;;
80307;SDS011;69616;43.522;1.348;2023-11-19T07:54:23;10.75;;;5.05;;
80307;SDS011;69616;43.522;1.348;2023-11-19T07:56:49;12.40;;;5.20;;
80307;SDS011;69616;43.522;1.348;2023-11-19T07:59:15;11.80;;;4.97;;
80307;SDS011;69616;43.522;1.348;2023-11-19T08:01:41;11.70;;;5.30;;
80307;SDS011;69616;43.522;1.348;2023-11-19T08:04:06;14.20;;;5.18;;
80307;SDS011;69616;43.522;1.348;2023-11-19T08:06:31;11.10;;;5.83;;
80307;SDS011;69616;43.522;1.348;2023-11-19T08:08:57;10.63;;;5.47;;
80307;SDS011;69616;43.522;1.348;2023-11-19T08:11:22;9.67;;;4.97;;
80307;SDS011;69616;43.522;1.348;2023-11-19T08:13:48;12.43;;;5.47;;
80307;SDS011;69616;43.522;1.348;2023-11-19T08:16:13;16.60;;;5.57;;
80307;SDS011;69616;43.522;1.348;2023-11-19T08:18:41;11.65;;;5.35;;
80307;SDS011;69616;43.522;1.348;2023-11-19T08:21:08;12.03;;;5.60;;
80307;SDS011;69616;43.522;1.348;2023-11-19T08:23:33;13.80;;;6.05;;
80307;SDS011;69616;43.522;1.348;2023-11-19T08:25:59;12.13;;;5.57;;
80307;SDS011;69616;43.522;1.348;2023-11-19T08:28:24;11.30;;;5.35;;
80307;SDS011;69616;43.522;1.348;2023-11-19T08:30:50;9.27;;;5.20;;
80307;SDS011;69616;43.522;1.348;2023-11-19T08:33:15;13.13;;;6.20;;
80307;SDS011;69616;43.522;1.348;2023-11-19T08:35:42;10.25;;;5.18;;
80307;SDS011;69616;43.522;1.348;2023-11-19T08:38:07;10.80;;;5.20;;
80307;SDS011;69616;43.522;1.348;2023-11-19T08:40:32;11.67;;;5.60;;
80307;SDS011;69616;43.522;1.348;2023-11-19T08:42:58;12.00;;;4.77;;
80307;SDS011;69616;43.522;1.348;2023-11-19T08:45:23;12.63;;;5.37;;
80307;SDS011;69616;43.522;1.348;2023-11-19T08:47:48;10.63;;;5.00;;
80307;SDS011;69616;43.522;1.348;2023-11-19T08:50:14;11.60;;;5.50;;
80307;SDS011;69616;43.522;1.348;2023-11-19T08:52:39;12.45;;;6.00;;
80307;SDS011;69616;43.522;1.348;2023-11-19T08:55:05;11.27;;;5.00;;
80307;SDS011;69616;43.522;1.348;2023-11-19T08:57:31;12.40;;;5.40;;
80307;SDS011;69616;43.522;1.348;2023-11-19T08:59:57;9.63;;;4.85;;
80307;SDS011;69616;43.522;1.348;2023-11-19T09:02:23;14.10;;;6.00;;
80307;SDS011;69616;43.522;1.348;2023-11-19T09:04:48;12.73;;;5.90;;
80307;SDS011;69616;43.522;1.348;2023-11-19T09:07:13;13.07;;;5.10;;
80307;SDS011;69616;43.522;1.348;2023-11-19T09:09:39;12.17;;;5.77;;
80307;SDS011;69616;43.522;1.348;2023-11-19T09:12:05;12.88;;;5.68;;
80307;SDS011;69616;43.522;1.348;2023-11-19T09:14:30;12.43;;;6.20;;
80307;SDS011;69616;43.522;1.348;2023-11-19T09:16:56;14.30;;;5.90;;
80307;SDS011;69616;43.522;1.348;2023-11-19T09:19:23;14.02;;;6.25;;
80307;SDS011;69616;43.522;1.348;2023-11-19T09:21:48;12.03;;;5.50;;
80307;SDS011;69616;43.522;1.348;2023-11-19T09:24:14;10.75;;;5.28;;
80307;SDS011;69616;43.522;1.348;2023-11-19T09:26:40;11.77;;;5.13;;
80307;SDS011;69616;43.522;1.348;2023-11-19T09:29:06;13.30;;;5.27;;
80307;SDS011;69616;43.522;1.348;2023-11-19T09:31:32;11.27;;;5.15;;
80307;SDS011;69616;43.522;1.348;2023-11-19T09:33:58;13.07;;;6.47;;
80307;SDS011;69616;43.522;1.348;2023-11-19T09:36:23;16.03;;;7.70;;
80307;SDS011;69616;43.522;1.348;2023-11-19T09:38:49;14.93;;;6.30;;
80307;SDS011;69616;43.522;1.348;2023-11-19T09:41:14;11.27;;;5.20;;
80307;SDS011;69616;43.522;1.348;2023-11-19T09:43:41;13.18;;;4.93;;
80307;SDS011;69616;43.522;1.348;2023-11-19T09:46:10;8.77;;;4.18;;
80307;SDS011;69616;43.522;1.348;2023-11-19T09:48:38;10.75;;;4.75;;
80307;SDS011;69616;43.522;1.348;2023-11-19T09:51:08;12.70;;;4.70;;
80307;SDS011;69616;43.522;1.348;2023-11-19T09:53:35;11.50;;;5.03;;
80307;SDS011;69616;43.522;1.348;2023-11-19T09:56:04;9.50;;;5.13;;
80307;SDS011;69616;43.522;1.348;2023-11-19T09:58:31;10.77;;;4.85;;
80307;SDS011;69616;43.522;1.348;2023-11-19T10:00:58;13.68;;;5.65;;
80307;SDS011;69616;43.522;1.348;2023-11-19T10:03:24;12.70;;;4.78;;
80307;SDS011;69616;43.522;1.348;2023-11-19T10:05:52;10.63;;;4.33;;
80307;SDS011;69616;43.522;1.348;2023-11-19T10:08:19;14.32;;;5.07;;
80307;SDS011;69616;43.522;1.348;2023-11-19T10:10:45;10.63;;;4.77;;
80307;SDS011;69616;43.522;1.348;2023-11-19T10:13:10;13.20;;;4.63;;
80307;SDS011;69616;43.522;1.348;2023-11-19T10:15:36;10.63;;;4.60;;
80307;SDS011;69616;43.522;1.348;2023-11-19T10:18:02;13.98;;;5.57;;
80307;SDS011;69616;43.522;1.348;2023-11-19T10:20:36;10.93;;;4.83;;
80307;SDS011;69616;43.522;1.348;2023-11-19T10:23:02;11.18;;;5.55;;
80307;SDS011;69616;43.522;1.348;2023-11-19T10:25:28;12.60;;;5.57;;
80307;SDS011;69616;43.522;1.348;2023-11-19T10:27:55;13.70;;;5.10;;
80307;SDS011;69616;43.522;1.348;2023-11-19T10:30:25;11.97;;;5.93;;
80307;SDS011;69616;43.522;1.348;2023-11-19T10:33:04;10.85;;;4.50;;
80307;SDS011;69616;43.522;1.348;2023-11-19T10:35:34;11.18;;;4.60;;
80307;SDS011;69616;43.522;1.348;2023-11-19T10:38:23;10.05;;;4.30;;
80307;SDS011;69616;43.522;1.348;2023-11-19T10:40:50;10.77;;;4.68;;
80307;SDS011;69616;43.522;1.348;2023-11-19T10:43:16;11.00;;;4.37;;
80307;SDS011;69616;43.522;1.348;2023-11-19T10:45:42;8.43;;;4.10;;
80307;SDS011;69616;43.522;1.348;2023-11-19T10:48:07;12.30;;;4.00;;
80307;SDS011;69616;43.522;1.348;2023-11-19T10:50:36;9.32;;;3.65;;
80307;SDS011;69616;43.522;1.348;2023-11-19T10:53:03;9.07;;;3.50;;
80307;SDS011;69616;43.522;1.348;2023-11-19T10:55:33;9.20;;;3.50;;
80307;SDS011;69616;43.522;1.348;2023-11-19T10:58:06;9.63;;;4.10;;
80307;SDS011;69616;43.522;1.348;2023-11-19T11:00:40;10.70;;;4.22;;
80307;SDS011;69616;43.522;1.348;2023-11-19T11:03:19;9.60;;;3.80;;
80307;SDS011;69616;43.522;1.348;2023-11-19T11:05:49;8.67;;;3.20;;
80307;SDS011;69616;43.522;1.348;2023-11-19T11:08:15;7.90;;;3.35;;
80307;SDS011;69616;43.522;1.348;2023-11-19T11:10:44;10.40;;;4.05;;
80307;SDS011;69616;43.522;1.348;2023-11-19T11:13:10;10.75;;;3.90;;
80307;SDS011;69616;43.522;1.348;2023-11-19T11:15:38;8.77;;;3.13;;
80307;SDS011;69616;43.522;1.348;2023-11-19T11:18:07;9.43;;;3.03;;
80307;SDS011;69616;43.522;1.348;2023-11-19T11:20:34;10.98;;;3.30;;
80307;SDS011;69616;43.522;1.348;2023-11-19T11:28:26;9.48;;;3.50;;
80307;SDS011;69616;43.522;1.348;2023-11-19T11:33:34;8.60;;;2.97;;
80307;SDS011;69616;43.522;1.348;2023-11-19T11:36:20;8.05;;;2.85;;
80307;SDS011;69616;43.522;1.348;2023-11-19T11:38:48;7.80;;;2.53;;
80307;SDS011;69616;43.522;1.348;2023-11-19T11:41:21;8.88;;;2.78;;
80307;SDS011;69616;43.522;1.348;2023-11-19T11:43:51;8.07;;;2.95;;
80307;SDS011;69616;43.522;1.348;2023-11-19T11:49:02;12.80;;;5.70;;
80307;SDS011;69616;43.522;1.348;2023-11-19T11:54:09;14.10;;;5.43;;
80307;SDS011;69616;43.522;1.348;2023-11-19T11:56:37;12.82;;;5.45;;
80307;SDS011;69616;43.522;1.348;2023-11-19T11:59:05;12.68;;;5.22;;
80307;SDS011;69616;43.522;1.348;2023-11-19T12:01:33;11.73;;;5.00;;
80307;SDS011;69616;43.522;1.348;2023-11-19T12:03:58;13.13;;;4.90;;
80307;SDS011;69616;43.522;1.348;2023-11-19T12:06:23;9.20;;;4.50;;
80307;SDS011;69616;43.522;1.348;2023-11-19T12:08:51;8.65;;;3.10;;
80307;SDS011;69616;43.522;1.348;2023-11-19T12:11:17;7.60;;;3.43;;
80307;SDS011;69616;43.522;1.348;2023-11-19T12:13:54;11.23;;;2.97;;
80307;SDS011;69616;43.522;1.348;2023-11-19T12:16:27;8.27;;;3.40;;
80307;SDS011;69616;43.522;1.348;2023-11-19T12:18:54;10.47;;;2.43;;
80307;SDS011;69616;43.522;1.348;2023-11-19T12:21:29;8.65;;;2.80;;
80307;SDS011;69616;43.522;1.348;2023-11-19T12:23:57;7.38;;;2.83;;
80307;SDS011;69616;43.522;1.348;2023-11-19T12:26:31;8.38;;;2.67;;
80307;SDS011;69616;43.522;1.348;2023-11-19T12:29:00;8.00;;;2.30;;
80307;SDS011;69616;43.522;1.348;2023-11-19T12:31:28;9.70;;;2.60;;
80307;SDS011;69616;43.522;1.348;2023-11-19T12:33:54;21.25;;;7.65;;
80307;SDS011;69616;43.522;1.348;2023-11-19T12:36:19;10.07;;;2.60;;
80307;SDS011;69616;43.522;1.348;2023-11-19T12:38:45;11.27;;;5.00;;
80307;SDS011;69616;43.522;1.348;2023-11-19T12:41:11;11.38;;;4.20;;
80307;SDS011;69616;43.522;1.348;2023-11-19T12:43:37;8.18;;;2.67;;
80307;SDS011;69616;43.522;1.348;2023-11-19T12:46:16;12.90;;;6.03;;
80307;SDS011;69616;43.522;1.348;2023-11-19T12:48:46;8.37;;;2.80;;
80307;SDS011;69616;43.522;1.348;2023-11-19T12:51:13;6.60;;;2.05;;
80307;SDS011;69616;43.522;1.348;2023-11-19T12:53:48;8.63;;;2.70;;
80307;SDS011;69616;43.522;1.348;2023-11-19T12:56:15;8.07;;;2.25;;
80307;SDS011;69616;43.522;1.348;2023-11-19T12:58:41;6.77;;;2.37;;
80307;SDS011;69616;43.522;1.348;2023-11-19T13:01:08;6.03;;;2.30;;
80307;SDS011;69616;43.522;1.348;2023-11-19T13:03:37;9.50;;;2.88;;
80307;SDS011;69616;43.522;1.348;2023-11-19T13:06:10;7.30;;;2.40;;
80307;SDS011;69616;43.522;1.348;2023-11-19T13:08:41;7.78;;;2.47;;
80307;SDS011;69616;43.522;1.348;2023-11-19T13:11:11;6.83;;;2.53;;
80307;SDS011;69616;43.522;1.348;2023-11-19T13:13:53;6.07;;;2.10;;
80307;SDS011;69616;43.522;1.348;2023-11-19T13:16:26;7.20;;;2.40;;
80307;SDS011;69616;43.522;1.348;2023-11-19T13:18:52;5.40;;;2.00;;
80307;SDS011;69616;43.522;1.348;2023-11-19T13:21:18;6.17;;;2.00;;
80307;SDS011;69616;43.522;1.348;2023-11-19T13:23:44;5.22;;;1.50;;
80307;SDS011;69616;43.522;1.348;2023-11-19T13:26:09;5.43;;;1.73;;
80307;SDS011;69616;43.522;1.348;2023-11-19T13:28:36;4.93;;;1.55;;
80307;SDS011;69616;43.522;1.348;2023-11-19T13:31:01;5.90;;;1.73;;
80307;SDS011;69616;43.522;1.348;2023-11-19T13:33:27;4.72;;;1.50;;
80307;SDS011;69616;43.522;1.348;2023-11-19T13:35:54;4.22;;;1.40;;
80307;SDS011;69616;43.522;1.348;2023-11-19T13:38:19;4.10;;;1.50;;
80307;SDS011;69616;43.522;1.348;2023-11-19T13:40:45;7.40;;;1.50;;
80307;SDS011;69616;43.522;1.348;2023-11-19T13:43:10;6.47;;;1.60;;
80307;SDS011;69616;43.522;1.348;2023-11-19T13:45:36;8.70;;;1.50;;
80307;SDS011;69616;43.522;1.348;2023-11-19T13:48:02;5.20;;;1.70;;
80307;SDS011;69616;43.522;1.348;2023-11-19T13:50:28;5.00;;;1.40;;
80307;SDS011;69616;43.522;1.348;2023-11-19T13:52:54;5.53;;;1.65;;
80307;SDS011;69616;43.522;1.348;2023-11-19T13:55:19;5.28;;;1.63;;
80307;SDS011;69616;43.522;1.348;2023-11-19T13:57:45;4.80;;;1.40;;
80307;SDS011;69616;43.522;1.348;2023-11-19T14:00:11;8.98;;;3.97;;
80307;SDS011;69616;43.522;1.348;2023-11-19T14:02:48;4.70;;;1.90;;
80307;SDS011;69616;43.522;1.348;2023-11-19T14:05:14;5.00;;;1.53;;
80307;SDS011;69616;43.522;1.348;2023-11-19T14:07:43;6.22;;;1.73;;
80307;SDS011;69616;43.522;1.348;2023-11-19T14:10:09;5.70;;;1.83;;
80307;SDS011;69616;43.522;1.348;2023-11-19T14:12:38;5.10;;;1.58;;
80307;SDS011;69616;43.522;1.348;2023-11-19T14:15:04;5.72;;;1.90;;
80307;SDS011;69616;43.522;1.348;2023-11-19T14:17:34;4.78;;;1.60;;
80307;SDS011;69616;43.522;1.348;2023-11-19T14:20:01;6.17;;;1.73;;
80307;SDS011;69616;43.522;1.348;2023-11-19T14:22:38;6.50;;;1.70;;
80307;SDS011;69616;43.522;1.348;2023-11-19T14:25:07;5.22;;;1.98;;
80307;SDS011;69616;43.522;1.348;2023-11-19T14:27:37;5.35;;;1.67;;
80307;SDS011;69616;43.522;1.348;2023-11-19T14:30:06;5.85;;;1.77;;
80307;SDS011;69616;43.522;1.348;2023-11-19T14:32:33;7.27;;;1.70;;
80307;SDS011;69616;43.522;1.348;2023-11-19T14:35:00;5.95;;;1.65;;
80307;SDS011;69616;43.522;1.348;2023-11-19T14:37:25;5.73;;;1.70;;
80307;SDS011;69616;43.522;1.348;2023-11-19T14:39:51;7.10;;;1.50;;
80307;SDS011;69616;43.522;1.348;2023-11-19T14:42:16;7.28;;;2.00;;
80307;SDS011;69616;43.522;1.348;2023-11-19T14:44:42;6.77;;;1.80;;
80307;SDS011;69616;43.522;1.348;2023-11-19T14:47:08;8.27;;;2.10;;
80307;SDS011;69616;43.522;1.348;2023-11-19T14:49:36;6.80;;;1.60;;
80307;SDS011;69616;43.522;1.348;2023-11-19T14:52:05;5.28;;;1.70;;